72.9°F
Current conditions from King Hill
Updated every 5 minutes
 
  Friday July 3, 2015

Observations for Westford

Westford

44° 37' 39"N, 73° 02' 29"W, Elevation 850 ft.
Eastern Time

Hourly observations for the last 72 hours

Date Time Temperature (F) Humi-
dity

(%)
Wind
(mph)
Pressure Rain (in)
Air Dew 6 Hour 1 Hr 3 Hr 6 Hr Day
Alt
(in)
Sea
Level

(mb)
Max Min
3 13:00 73.5 53.7 50 NE 0 G 7 29.92 1013.2 0.00
3 12:00 71.0 53.0 53 W 6 G 11 29.93 1013.7 0.00
3 11:00 69.1 51.8 54 W 2 G 11 29.93 1013.7 0.00
3 10:00 67.4 53.5 61 Calm 29.94 1014.0 0.00
3 09:00 63.2 54.4 73 S 0 G 9 29.94 1014.0 0.00
3 08:00 59.5 52.3 59.5 46.3 77 SW 1 G 7 29.92 1013.3 0.00
3 07:00 53.3 50.7 91 WSW 0 G 1 29.91 1012.9 0.00
3 06:00 48.8 47.7 96 Calm 29.90 1012.5 0.00
3 05:00 46.3 44.9 95 Calm 29.89 1012.1 0.00
3 04:00 48.3 46.7 94 Calm 29.87 1011.7 0.00
3 03:00 49.2 47.0 92 Calm 29.87 1011.5 0.00
3 02:00 50.2 47.1 64.4 49.9 89 Calm 29.87 1011.5 0.00
3 01:00 50.4 46.4 86 Calm 29.87 1011.6 0.00
3 00:00 50.2 46.5 87 Calm 29.87 1011.4 0.00
2 23:00 50.5 46.8 87 Calm 29.87 1011.6 0.00
2 22:00 50.6 47.2 88 Calm 29.87 1011.5 0.00
2 21:00 54.1 49.1 83 Calm 29.86 1011.3 0.00
2 20:00 64.4 52.8 72.0 64.4 66 W 0 G 6 29.85 1010.8 0.00
2 19:00 68.1 51.8 56 WNW 0 G 5 29.84 1010.5 0.00
2 18:00 71.0 52.0 51 WNW 0 G 5 29.83 1010.4 0.00
2 17:00 71.5 54.0 54 WNW 1 G 8 29.83 1010.3 0.00
2 16:00 71.6 49.2 45 NW 1 G 13 29.83 1010.3 0.00
2 15:00 70.3 50.3 49 WNW 3 G 15 29.83 1010.3 0.00
2 14:00 69.2 48.1 69.3 57.5 47 WSW 4 G 12 29.83 1010.3 0.00
2 13:00 67.6 47.8 49 WSW 5 G 13 29.83 1010.1 0.00
2 12:00 65.8 51.1 59 W 5 G 13 29.84 1010.4 0.00
2 11:00 63.6 52.5 67 W 4 G 14 29.83 1010.2 0.00
2 10:00 61.7 52.2 71 WSW 4 G 14 29.82 1009.8 0.00
2 09:00 59.7 51.4 74 WNW 2 G 14 29.82 1009.9 0.00
2 08:00 57.5 52.4 59.3 53.8 83 WNW 4 G 9 29.81 1009.4 0.00
2 07:00 55.0 51.5 88 WNW 0 G 10 29.79 1009.0 0.00
2 06:00 54.0 50.8 89 W 1 G 8 29.79 1008.9 0.00
2 05:00 55.2 51.7 88 WNW 0 G 9 29.78 1008.6 0.00
2 04:00 56.0 52.5 88 Calm 29.77 1008.3 0.00
2 03:00 57.2 53.1 86 WNW 2 G 10 29.76 1007.7 0.00
2 02:00 59.2 54.7 65.8 59.2 85 WNW 0 G 9 29.75 1007.3 0.00
2 01:00 59.5 55.3 86 W 1 G 8 29.73 1006.6 0.00
2 00:00 60.2 56.3 87 SW 0 G 9 29.72 1006.3 1.37
1 23:00 60.3 56.7 88 WSW 3 G 11 29.70 1005.8 1.37
1 22:00 61.0 56.8 86 W 0 G 9 29.68 1005.1 1.37
1 21:00 63.4 59.1 86 W 7 G 18 29.65 1004.1 1.37
1 20:00 65.5 60.5 72.6 63.2 84 WSW 2 G 12 29.60 1002.5 0.27 1.37
1 19:00 67.5 63.2 86 SW 4 G 11 29.58 1001.8 1.37
1 18:00 70.8 65.7 84 SW 0 G 8 29.57 1001.5 1.37
1 17:00 69.8 66.1 88 WSW 1 G 5 29.58 1001.7 0.27 1.37
1 16:00 71.7 68.0 88 SW 0 G 10 29.58 1001.6 1.37
1 15:00 63.5 62.9 98 SW 2 G 7 29.58 1001.9 0.27 1.37
1 14:00 63.4 62.5 63.7 62.3 97 SSW 0 G 6 29.59 1002.0 0.04 0.73 0.96 1.10
1 13:00 62.4 61.5 97 SSW 0 G 10 29.59 1002.1 0.48 1.06
1 12:00 63.1 61.9 96 SSW 0 G 9 29.61 1002.9 0.21 0.58
1 11:00 63.2 62.0 96 S 2 G 8 29.62 1003.2 0.21 0.23 0.37
1 10:00 63.6 62.1 95 SE 0 G 2 29.63 1003.4 0.02 0.16
1 09:00 63.7 61.9 94 SSW 0 G 1 29.65 1004.2 0.14
1 08:00 63.1 61.3 64.1 61.3 94 Calm 29.67 1004.7 0.14 0.14 0.14
1 07:00 62.5 61.0 95 S 0 G 5 29.67 1004.9 0.01 0.14
1 06:00 62.0 60.6 95 SE 0 G 1 29.69 1005.4 0.13 0.13
1 05:00 63.6 60.0 88 SSW 0 G 6 29.71 1006.1 0.00
1 04:00 62.8 59.5 89 S 1 G 6 29.72 1006.5 0.00
1 03:00 61.5 58.9 91 Calm 29.75 1007.3 0.00
1 02:00 63.7 59.4 63.7 59.5 86 S 0 G 6 29.77 1008.3 0.01 0.00
1 01:00 61.2 59.2 93 Calm 29.78 1008.7 0.00
1 00:00 61.9 58.9 90 SSW 1 G 6 29.80 1009.1 0.03
30 23:00 61.0 58.7 92 S 0 G 1 29.82 1009.7 0.01 0.03
30 22:00 60.0 58.3 94 Calm 29.83 1010.1 0.03
30 21:00 59.7 58.3 95 S 0 G 1 29.83 1010.2 0.01 0.03
30 20:00 60.9 58.6 74.3 60.9 92 SE 0 G 1 29.84 1010.5 0.01 0.02 0.02
30 19:00 62.2 60.5 94 Calm 29.84 1010.7 0.01 0.02
30 18:00 62.8 60.7 93 SW 2 G 6 29.86 1011.3 0.01
30 17:00 63.3 60.6 91 SW 1 G 9 29.88 1011.9 0.01 0.01
30 16:00 64.1 60.8 89 SSW 0 G 11 29.89 1012.2 0.01 0.01
30 15:00 70.6 63.4 78 SSW 0 G 5 29.89 1012.3 0.00
30 14:00 74.3 61.8 77.3 59.6 65 SW 0 G 1 29.89 1012.3 0.00

Data generated by WxSolution Version 1.8.7.5, Build 2015.04.24.


 
 
Current Radar Loop:

Copyright © WestfordWeather.net 2007-2015. All rights reserved.